Morning Charlotte — 3EMA2 — position and weather

sailwx.info

Track history (hours):
 
Tides and Currents Weather Stations Pressure Air Temp Water Temp Dewpoint Dewpoint Depression Visibility Wind Speed Wind Dir Waves Ship Positions

Morning Charlotte

Last reported at 2017-Jun-23 01:37 UTC. Time now 2017-Jun-24 05:20 UTC.
Position N 42°15' W 070°00'.

Length 200 m; draft 8.9 m.

Type: Cargo ship. MMSI: 357275000.

Date/timePositionNaut miles runAvg speedWind from/ knotsBaromVisibWave heightAir tempDewpointWater temp
2017-Jun-23 01:37N 42°15' W 070°00'215.7
2017-Jun-23 01:30N 42°17' W 070°01'816.0
2017-Jun-23 01:01N 42°18' W 070°12'815.9
2017-Jun-23 00:30N 42°18' W 070°23'816.8
2017-Jun-23 00:00N 42°19' W 070°34'815.0
2017-Jun-22 23:30N 42°22' W 070°44'612.1
2017-Jun-22 23:01N 42°23' W 070°52'510.0
2017-Jun-22 22:31N 42°20' W 070°57'4 8.4
2017-Jun-22 22:01N 42°22' W 071°02'2 3.1
2017-Jun-22 21:30N 42°23' W 071°03'0 0.0
2017-Jun-22 21:00N 42°23' W 071°03'0 0.0
2017-Jun-22 20:30N 42°23' W 071°03'0 0.0
2017-Jun-22 20:00N 42°23' W 071°03'0 0.0
2017-Jun-22 19:30N 42°23' W 071°03'0 0.0
2017-Jun-22 19:00N 42°23' W 071°03'0 0.0
2017-Jun-22 18:30N 42°23' W 071°03'0 0.0
2017-Jun-22 18:00N 42°23' W 071°03'0 0.0
2017-Jun-22 17:30N 42°23' W 071°03'0 0.0
2017-Jun-22 16:57N 42°23' W 071°03'0 0.0
2017-Jun-22 16:30N 42°23' W 071°03'0 0.0
2017-Jun-22 16:00N 42°23' W 071°03'0 0.0
2017-Jun-22 15:30N 42°23' W 071°03'0 0.0
2017-Jun-22 15:00N 42°23' W 071°03'0 0.0
2017-Jun-22 14:30N 42°23' W 071°03'0 0.0
2017-Jun-22 13:30N 42°23' W 071°03'0 0.0
2017-Jun-22 13:00N 42°23' W 071°03'0 0.0
2017-Jun-22 12:30N 42°23' W 071°03'0 0.0
2017-Jun-22 12:00N 42°23' W 071°03'0 0.0
2017-Jun-22 11:30N 42°23' W 071°03'0 0.0
2017-Jun-22 11:00N 42°23' W 071°03'0 0.0
2017-Jun-22 10:30N 42°23' W 071°03'0 0.0
2017-Jun-22 10:00N 42°23' W 071°03'1 1.6
2017-Jun-22 09:31N 42°22' W 071°03'4 8.3
2017-Jun-22 09:01N 42°20' W 070°58'611.5
2017-Jun-22 08:31N 42°23' W 070°51'5 9.2
2017-Jun-22 08:00N 42°24' W 070°45'5 9.5
2017-Jun-22 07:30N 42°22' W 070°39'5 9.8
2017-Jun-22 07:00N 42°22' W 070°33'510.6
2017-Jun-22 06:31N 42°21' W 070°26'511.0
2017-Jun-22 06:01N 42°21' W 070°18'510.7
2017-Jun-22 05:30N 42°20' W 070°11'510.2
2017-Jun-22 05:00N 42°20' W 070°04'5 9.4
2017-Jun-22 04:31N 42°17' W 069°58'510.4
2017-Jun-22 03:59N 42°12' W 069°55'169 7.2
2017-Jun-21 04:38N 40°22' W 072°46'3216.8
2017-Jun-21 02:44N 40°24' W 073°28'417.3
2017-Jun-21 02:30N 40°24' W 073°33'816.1
2017-Jun-21 02:00N 40°26' W 073°43'510.3
2017-Jun-21 01:31N 40°27' W 073°50'713.5
2017-Jun-21 01:00N 40°30' W 073°58'713.1
2017-Jun-21 00:30N 40°36' W 074°02'4 8.4
2017-Jun-21 00:01N 40°39' W 074°06'2 3.9
2017-Jun-20 23:31N 40°40' W 074°09'2 4.0
2017-Jun-20 23:01N 40°42' W 074°09'0 0.0
2017-Jun-20 22:30N 40°42' W 074°09'0 0.0
2017-Jun-20 22:00N 40°42' W 074°09'0 0.0
2017-Jun-20 21:30N 40°42' W 074°09'0 0.0
2017-Jun-20 21:00N 40°42' W 074°09'0 0.0
2017-Jun-20 20:30N 40°42' W 074°09'0 0.0
2017-Jun-20 20:00N 40°42' W 074°09'0 0.0
2017-Jun-20 19:30N 40°42' W 074°09'0 0.0
2017-Jun-20 19:00N 40°42' W 074°09'0 0.0
2017-Jun-20 18:30N 40°42' W 074°09'0 0.0
2017-Jun-20 18:00N 40°42' W 074°09'0 0.0
2017-Jun-20 17:30N 40°42' W 074°09'0 0.0
2017-Jun-20 17:00N 40°42' W 074°09'0 0.0
2017-Jun-20 16:30N 40°42' W 074°09'0 0.0
2017-Jun-20 16:00N 40°42' W 074°09'0 0.0
2017-Jun-20 15:30N 40°42' W 074°09'0 0.0
2017-Jun-20 15:00N 40°42' W 074°09'0 0.0
2017-Jun-20 14:00N 40°42' W 074°09'0 0.0
2017-Jun-20 13:30N 40°42' W 074°09'0 0.0
2017-Jun-20 13:00N 40°42' W 074°09'0 0.0
2017-Jun-20 12:30N 40°42' W 074°09'0 0.0
2017-Jun-20 12:00N 40°42' W 074°09'0 0.0
2017-Jun-20 11:30N 40°42' W 074°09'0 0.0
2017-Jun-20 11:00N 40°42' W 074°09'0 0.0
2017-Jun-20 10:30N 40°42' W 074°09'0 0.0
2017-Jun-20 10:00N 40°42' W 074°09'0 0.0
2017-Jun-20 09:30N 40°42' W 074°09'0 0.0
2017-Jun-20 09:00N 40°42' W 074°09'0 0.0
2017-Jun-20 08:30N 40°42' W 074°09'0 0.0
2017-Jun-20 08:00N 40°42' W 074°09'0 0.0
2017-Jun-20 07:30N 40°42' W 074°09'0 0.0
2017-Jun-20 07:00N 40°42' W 074°09'0 0.0
2017-Jun-20 06:30N 40°42' W 074°09'0 0.0
2017-Jun-20 06:00N 40°42' W 074°09'0 0.0
2017-Jun-20 05:30N 40°42' W 074°09'0 0.0
2017-Jun-20 05:00N 40°42' W 074°09'0 0.0
2017-Jun-20 04:30N 40°42' W 074°09'0 0.0
2017-Jun-20 04:00N 40°42' W 074°09'0 0.0
2017-Jun-20 03:30N 40°42' W 074°09'0 0.0
2017-Jun-20 03:00N 40°42' W 074°09'0 0.0
2017-Jun-20 02:30N 40°42' W 074°09'0 0.0
2017-Jun-20 02:00N 40°42' W 074°09'0 0.0
2017-Jun-20 01:30N 40°42' W 074°09'0 0.0
2017-Jun-20 01:00N 40°42' W 074°09'0 0.0
2017-Jun-20 00:30N 40°42' W 074°09'0 0.0
2017-Jun-20 00:00N 40°42' W 074°09'0 0.0
2017-Jun-19 23:30N 40°42' W 074°09'0 0.0
2017-Jun-19 23:00N 40°42' W 074°09'0 0.0
2017-Jun-19 22:30N 40°42' W 074°09'0 0.0
2017-Jun-19 22:00N 40°42' W 074°09'0 0.0
2017-Jun-19 21:27N 40°42' W 074°09'0 0.0
2017-Jun-19 21:00N 40°42' W 074°09'0 0.0
2017-Jun-19 20:30N 40°42' W 074°09'0 0.0
2017-Jun-19 20:00N 40°42' W 074°09'0 0.0
2017-Jun-19 19:27N 40°42' W 074°09'0 0.0
2017-Jun-19 19:00N 40°42' W 074°09'0 0.0
2017-Jun-19 18:30N 40°42' W 074°09'0 0.0
2017-Jun-19 18:00N 40°42' W 074°09'0 0.0
2017-Jun-19 17:30N 40°42' W 074°09'0 0.0
2017-Jun-19 17:00N 40°42' W 074°09'0 0.0
2017-Jun-19 16:30N 40°42' W 074°09'0 0.0
2017-Jun-19 16:00N 40°42' W 074°09'0 0.0
2017-Jun-19 15:30N 40°42' W 074°09'0 0.0
2017-Jun-19 15:00N 40°42' W 074°09'0 0.0
2017-Jun-19 14:00N 40°42' W 074°09'0 0.0
2017-Jun-19 13:30N 40°42' W 074°09'0 0.0
2017-Jun-19 13:00N 40°42' W 074°09'0 0.0
2017-Jun-19 12:30N 40°42' W 074°09'0 0.0
2017-Jun-19 12:00N 40°42' W 074°09'0 0.0
2017-Jun-19 11:30N 40°42' W 074°09'0 0.0
2017-Jun-19 11:00N 40°42' W 074°09'0 0.0
2017-Jun-19 10:30N 40°42' W 074°09'0 0.2
2017-Jun-19 10:01N 40°42' W 074°09'1 1.9
2017-Jun-19 09:31N 40°41' W 074°08'3 5.3
2017-Jun-19 09:01N 40°39' W 074°09'4 7.2
2017-Jun-19 08:31N 40°39' W 074°04'3 6.2
2017-Jun-19 08:01N 40°36' W 074°02'1212.3
2017-Jun-19 07:00N 40°28' W 073°50'4 7.5
2017-Jun-19 06:30N 40°25' W 073°48'713.0
2017-Jun-19 05:57N 40°17' W 073°46'45 2.6
2017-Jun-18 12:32N 39°36' W 073°20'2 1.6
2017-Jun-18 11:12N 39°36' W 073°23'0 1.7
2017-Jun-18 10:58N 39°36' W 073°24'1 1.6
2017-Jun-18 10:27N 39°36' W 073°25'15 3.4
2017-Jun-18 06:01N 39°35' W 073°44'310.8
2017-Jun-18 05:42N 39°35' W 073°48'1 3.1
2017-Jun-18 05:30N 39°35' W 073°49'1 1.3
2017-Jun-18 05:00N 39°35' W 073°49'1 1.4
2017-Jun-18 04:30N 39°34' W 073°48'1 1.5
2017-Jun-18 04:00N 39°34' W 073°48'1 1.8
2017-Jun-18 03:28N 39°33' W 073°47'1 1.6
2017-Jun-18 03:00N 39°32' W 073°46'1 1.6
2017-Jun-18 02:27N 39°32' W 073°45'1 1.6
2017-Jun-18 02:01N 39°32' W 073°44'1 1.6
2017-Jun-18 01:30N 39°31' W 073°43'1 1.6
2017-Jun-18 01:00N 39°31' W 073°42'2 1.1
2017-Jun-17 23:16N 39°30' W 073°40'0 0.8
2017-Jun-17 22:58N 39°30' W 073°40'1 0.8
2017-Jun-17 21:43N 39°31' W 073°39'0 0.8
2017-Jun-17 21:13N 39°31' W 073°38'0 0.9
2017-Jun-17 20:50N 39°31' W 073°38'2 0.8
2017-Jun-17 19:01N 39°32' W 073°36'1 0.8
2017-Jun-17 17:35N 39°33' W 073°35'0 0.5
2017-Jun-17 17:07N 39°33' W 073°35'0 0.4
2017-Jun-17 16:22N 39°33' W 073°34'0 0.6
2017-Jun-17 15:54N 39°33' W 073°34'0 0.7
2017-Jun-17 15:25N 39°34' W 073°34'0 0.8
2017-Jun-17 14:57N 39°34' W 073°34'1 0.8
2017-Jun-17 13:39N 39°34' W 073°32'0 0.5
2017-Jun-17 13:30N 39°34' W 073°32'0 0.7
2017-Jun-17 12:57N 39°34' W 073°32'3 5.4
2017-Jun-17 12:22N 39°31' W 073°34'914.0
2017-Jun-17 11:42N 39°23' W 073°40'316.1
2017-Jun-17 11:30N 39°20' W 073°41'815.7
2017-Jun-17 10:58N 39°13' W 073°47'816.2
2017-Jun-17 10:30N 39°07' W 073°53'916.0
2017-Jun-17 09:55N 38°60' W 074°01'1016.0
2017-Jun-17 09:18N 38°55' W 074°12'516.1
2017-Jun-17 09:00N 38°52' W 074°17'816.0
2017-Jun-17 08:30N 38°49' W 074°26'815.6
2017-Jun-17 08:00N 38°46' W 074°35'815.8
2017-Jun-17 07:30N 38°45' W 074°46'715.3
2017-Jun-17 07:00N 38°46' W 074°55'711.7
2017-Jun-17 06:24N 38°49' W 075°04'510.6
2017-Jun-17 05:55N 38°54' W 075°05'716.1
2017-Jun-17 05:28N 39°00' W 075°09'716.1
2017-Jun-17 05:01N 39°07' W 075°13'816.2
2017-Jun-17 04:31N 39°14' W 075°18'917.3
2017-Jun-17 04:00N 39°20' W 075°26'917.4
2017-Jun-17 03:30N 39°27' W 075°33'713.7
2017-Jun-17 03:00N 39°34' W 075°33'5 9.8
2017-Jun-17 02:30N 39°33' W 075°39'5 9.6
2017-Jun-17 02:00N 39°32' W 075°46'3 6.7
2017-Jun-17 01:30N 39°32' W 075°50'4 7.4
2017-Jun-17 01:00N 39°30' W 075°54'611.3
2017-Jun-17 00:30N 39°27' W 075°60'612.3
2017-Jun-17 00:00N 39°23' W 076°06'612.8
2017-Jun-16 23:31N 39°19' W 076°13'611.4
2017-Jun-16 23:00N 39°14' W 076°15'611.4
2017-Jun-16 22:31N 39°09' W 076°19'510.9
2017-Jun-16 22:01N 39°11' W 076°26'510.4
2017-Jun-16 21:30N 39°13' W 076°32'4 7.7
2017-Jun-16 21:00N 39°15' W 076°36'0 0.7
2017-Jun-16 20:29N 39°16' W 076°36'0 0.0
2017-Jun-16 19:59N 39°16' W 076°36'0 0.0
2017-Jun-16 19:29N 39°16' W 076°36'0 0.0
2017-Jun-16 18:59N 39°16' W 076°36'0 0.0
2017-Jun-16 18:29N 39°16' W 076°36'0 0.0
2017-Jun-16 17:59N 39°16' W 076°36'0 0.0
2017-Jun-16 17:29N 39°16' W 076°36'0 0.0
2017-Jun-16 16:59N 39°16' W 076°36'0 0.0
2017-Jun-16 16:29N 39°16' W 076°36'0 0.0
2017-Jun-16 15:59N 39°16' W 076°36'0 0.0
2017-Jun-16 15:29N 39°16' W 076°36'0 0.0
2017-Jun-16 14:59N 39°16' W 076°36'0 0.0
2017-Jun-16 14:29N 39°16' W 076°36'0 0.0
2017-Jun-16 13:29N 39°16' W 076°36'0 0.0
2017-Jun-16 12:59N 39°16' W 076°36'0 0.0
2017-Jun-16 12:29N 39°16' W 076°36'0 0.0
2017-Jun-16 11:59N 39°16' W 076°36'0 0.0
2017-Jun-16 11:26N 39°16' W 076°36'0 0.0
2017-Jun-16 10:59N 39°16' W 076°36'0 0.0
2017-Jun-16 10:29N 39°16' W 076°36'0 0.0
2017-Jun-16 09:59N 39°16' W 076°36'0 0.0
2017-Jun-16 09:29N 39°16' W 076°36'0 0.0
2017-Jun-16 08:59N 39°16' W 076°36'0 0.0
2017-Jun-16 08:29N 39°16' W 076°36'0 0.0
2017-Jun-16 07:59N 39°16' W 076°36'0 0.0
2017-Jun-16 07:26N 39°16' W 076°36'0 0.0
2017-Jun-16 06:59N 39°16' W 076°36'0 0.0
2017-Jun-16 06:29N 39°16' W 076°36'0 0.0
2017-Jun-16 05:59N 39°16' W 076°36'0 0.0
2017-Jun-16 05:29N 39°16' W 076°36'0 0.0
2017-Jun-16 04:59N 39°16' W 076°36'0 0.0
2017-Jun-16 04:29N 39°16' W 076°36'0 0.0
2017-Jun-16 03:59N 39°16' W 076°36'0 0.0
2017-Jun-16 03:29N 39°16' W 076°36'0 0.0
2017-Jun-16 02:59N 39°16' W 076°36'0 0.0
2017-Jun-16 02:29N 39°16' W 076°36'0 0.0
2017-Jun-16 01:59N 39°16' W 076°36'0 0.0
2017-Jun-16 01:29N 39°16' W 076°36'0 0.0
2017-Jun-16 00:59N 39°16' W 076°36'0 0.0
2017-Jun-16 00:29N 39°16' W 076°36'0 0.0
2017-Jun-15 23:59N 39°16' W 076°36'0 0.0
2017-Jun-15 23:29N 39°16' W 076°36'0 0.0
2017-Jun-15 22:59N 39°16' W 076°36'0 0.0
2017-Jun-15 22:29N 39°16' W 076°36'0 0.0
2017-Jun-15 21:59N 39°16' W 076°36'0 0.0
2017-Jun-15 21:29N 39°16' W 076°36'0 0.0
2017-Jun-15 20:59N 39°16' W 076°36'0 0.0
2017-Jun-15 20:29N 39°16' W 076°36'0 0.0
2017-Jun-15 19:59N 39°16' W 076°36'0 0.0
2017-Jun-15 19:29N 39°16' W 076°36'0 0.0
2017-Jun-15 18:59N 39°16' W 076°36'0 0.0
2017-Jun-15 18:29N 39°16' W 076°36'0 0.0
2017-Jun-15 17:59N 39°16' W 076°36'0 0.0
2017-Jun-15 17:29N 39°16' W 076°36'0 0.0
2017-Jun-15 16:59N 39°16' W 076°36'0 0.0
2017-Jun-15 16:29N 39°16' W 076°36'0 0.0
2017-Jun-15 15:59N 39°16' W 076°36'0 0.0
2017-Jun-15 15:29N 39°16' W 076°36'0 0.0
2017-Jun-15 14:59N 39°16' W 076°36'0 0.0
2017-Jun-15 14:29N 39°16' W 076°36'0 0.0
2017-Jun-15 12:53N 39°16' W 076°36'0 0.0
2017-Jun-15 11:35N 39°16' W 076°36'0 0.0
2017-Jun-15 11:29N 39°16' W 076°36'0 0.0
2017-Jun-15 10:59N 39°16' W 076°36'0 0.0
2017-Jun-15 10:29N 39°16' W 076°36'0 0.0
2017-Jun-15 09:06N 39°16' W 076°36'0 0.0
2017-Jun-15 08:45N 39°16' W 076°36'0 0.0
2017-Jun-15 08:30N 39°16' W 076°36'0 0.0
2017-Jun-15 08:00N 39°16' W 076°36'0 0.0
2017-Jun-15 07:30N 39°16' W 076°36'0 0.0
2017-Jun-15 06:57N 39°16' W 076°36'0 0.0
2017-Jun-15 06:12N 39°16' W 076°36'0 0.0
2017-Jun-15 04:42N 39°16' W 076°36'0 0.0
2017-Jun-15 04:30N 39°16' W 076°36'0 0.0
2017-Jun-15 03:50N 39°16' W 076°36'0 0.0
2017-Jun-14 14:05N 39°16' W 076°36'0 0.0
2017-Jun-14 13:29N 39°16' W 076°36'0 0.0
2017-Jun-14 12:59N 39°16' W 076°36'0 0.0
2017-Jun-14 12:29N 39°16' W 076°36'0 0.0
2017-Jun-14 11:59N 39°16' W 076°36'0 0.0
2017-Jun-14 11:29N 39°16' W 076°36'0 0.0
2017-Jun-14 10:59N 39°16' W 076°36'0 0.0
2017-Jun-14 10:29N 39°16' W 076°36'0 0.0
2017-Jun-14 09:59N 39°16' W 076°36'0 0.0
2017-Jun-14 09:29N 39°16' W 076°36'0 0.0
2017-Jun-14 08:59N 39°16' W 076°36'0 0.0
2017-Jun-14 08:20N 39°16' W 076°36'0 0.0
2017-Jun-14 07:59N 39°16' W 076°36'0 0.0
2017-Jun-14 07:29N 39°16' W 076°36'0 0.0
2017-Jun-14 06:59N 39°16' W 076°36'0 0.0
2017-Jun-14 06:26N 39°16' W 076°36'0 0.0
2017-Jun-14 05:59N 39°16' W 076°36'0 0.0
2017-Jun-14 05:29N 39°16' W 076°36'0 0.0
2017-Jun-14 04:59N 39°16' W 076°36'0 0.0
2017-Jun-14 04:29N 39°16' W 076°36'0 0.0
2017-Jun-14 03:59N 39°16' W 076°36'0 0.0
2017-Jun-14 03:29N 39°16' W 076°36'0 0.0
2017-Jun-14 02:59N 39°16' W 076°36'0 0.0
2017-Jun-14 02:29N 39°16' W 076°36'0 0.0
2017-Jun-14 01:59N 39°16' W 076°36'0 0.0
2017-Jun-14 01:29N 39°16' W 076°36'0 0.0
2017-Jun-14 00:59N 39°16' W 076°36'0 0.0
2017-Jun-14 00:29N 39°16' W 076°36'0 0.0
2017-Jun-13 23:59N 39°16' W 076°36'0 0.0
2017-Jun-13 23:29N 39°16' W 076°36'0 0.0
2017-Jun-13 22:59N 39°16' W 076°36'0 0.0
2017-Jun-13 22:29N 39°16' W 076°36'0 0.9
2017-Jun-13 22:01N 39°15' W 076°35'1 1.1
2017-Jun-13 21:28N 39°15' W 076°35'0 0.0
2017-Jun-13 20:58N 39°15' W 076°35'0 0.0
2017-Jun-13 20:28N 39°15' W 076°35'0 0.0
2017-Jun-13 19:58N 39°15' W 076°35'0 0.0
2017-Jun-13 19:28N 39°15' W 076°35'0 0.0
2017-Jun-13 18:58N 39°15' W 076°35'0 0.0
2017-Jun-13 18:28N 39°15' W 076°35'0 0.0
2017-Jun-13 17:58N 39°15' W 076°35'0 0.0
2017-Jun-13 17:28N 39°15' W 076°35'0 0.0
2017-Jun-13 16:58N 39°15' W 076°35'0 0.0
2017-Jun-13 16:28N 39°15' W 076°35'0 0.0
2017-Jun-13 15:58N 39°15' W 076°35'0 0.0
2017-Jun-13 15:28N 39°15' W 076°35'0 0.0
2017-Jun-13 14:58N 39°15' W 076°35'0 0.0
2017-Jun-13 13:58N 39°15' W 076°35'0 0.0
2017-Jun-13 13:28N 39°15' W 076°35'0 0.0
2017-Jun-13 12:58N 39°15' W 076°35'0 0.0
2017-Jun-13 12:28N 39°15' W 076°35'0 0.0
2017-Jun-13 11:58N 39°15' W 076°35'0 0.0
2017-Jun-13 11:28N 39°15' W 076°35'0 0.0
2017-Jun-13 10:58N 39°15' W 076°35'0 0.0
2017-Jun-13 10:28N 39°15' W 076°35'0 0.0
2017-Jun-13 10:01N 39°15' W 076°35'1 1.0
2017-Jun-13 09:30N 39°15' W 076°34'1 2.0
2017-Jun-13 08:59N 39°15' W 076°33'0 0.0
2017-Jun-13 08:29N 39°15' W 076°33'0 0.0
2017-Jun-13 07:59N 39°15' W 076°33'0 0.0
2017-Jun-13 07:23N 39°15' W 076°33'0 0.0
2017-Jun-13 06:59N 39°15' W 076°33'0 0.0
2017-Jun-13 06:29N 39°15' W 076°33'0 0.0
2017-Jun-13 05:59N 39°15' W 076°33'0 0.3
2017-Jun-13 05:30N 39°15' W 076°33'3 5.6
2017-Jun-13 05:00N 39°12' W 076°31'510.8
2017-Jun-13 04:30N 39°10' W 076°25'510.0
2017-Jun-13 04:00N 39°10' W 076°18'510.8
2017-Jun-13 03:30N 39°14' W 076°14'511.0
2017-Jun-13 03:01N 39°20' W 076°12'612.5
2017-Jun-13 02:31N 39°23' W 076°05'611.0
2017-Jun-13 02:00N 39°27' W 075°60'  
Track history (hours):
 
Tides and Currents Weather Stations Pressure Air Temp Water Temp Dewpoint Dewpoint Depression Visibility Wind Speed Wind Dir Waves Ship Positions

Morning Charlotte

Last reported at 2017-Jun-23 01:37 UTC. Time now 2017-Jun-24 05:20 UTC.
Position N 42°15' W 070°00'.

Length 200 m; draft 8.9 m.

Type: Cargo ship. MMSI: 357275000.

Date/timePositionNaut miles runAvg speedWind from/ knotsBaromVisibWave heightAir tempDewpointWater temp
2017-Jun-23 01:37N 42°15' W 070°00'215.7
2017-Jun-23 01:30N 42°17' W 070°01'816.0
2017-Jun-23 01:01N 42°18' W 070°12'815.9
2017-Jun-23 00:30N 42°18' W 070°23'816.8
2017-Jun-23 00:00N 42°19' W 070°34'815.0
2017-Jun-22 23:30N 42°22' W 070°44'612.1
2017-Jun-22 23:01N 42°23' W 070°52'510.0
2017-Jun-22 22:31N 42°20' W 070°57'4 8.4
2017-Jun-22 22:01N 42°22' W 071°02'2 3.1
2017-Jun-22 21:30N 42°23' W 071°03'0 0.0
2017-Jun-22 21:00N 42°23' W 071°03'0 0.0
2017-Jun-22 20:30N 42°23' W 071°03'0 0.0
2017-Jun-22 20:00N 42°23' W 071°03'0 0.0
2017-Jun-22 19:30N 42°23' W 071°03'0 0.0
2017-Jun-22 19:00N 42°23' W 071°03'0 0.0
2017-Jun-22 18:30N 42°23' W 071°03'0 0.0
2017-Jun-22 18:00N 42°23' W 071°03'0 0.0
2017-Jun-22 17:30N 42°23' W 071°03'0 0.0
2017-Jun-22 16:57N 42°23' W 071°03'0 0.0
2017-Jun-22 16:30N 42°23' W 071°03'0 0.0
2017-Jun-22 16:00N 42°23' W 071°03'0 0.0
2017-Jun-22 15:30N 42°23' W 071°03'0 0.0
2017-Jun-22 15:00N 42°23' W 071°03'0 0.0
2017-Jun-22 14:30N 42°23' W 071°03'0 0.0
2017-Jun-22 13:30N 42°23' W 071°03'0 0.0
2017-Jun-22 13:00N 42°23' W 071°03'0 0.0
2017-Jun-22 12:30N 42°23' W 071°03'0 0.0
2017-Jun-22 12:00N 42°23' W 071°03'0 0.0
2017-Jun-22 11:30N 42°23' W 071°03'0 0.0
2017-Jun-22 11:00N 42°23' W 071°03'0 0.0
2017-Jun-22 10:30N 42°23' W 071°03'0 0.0
2017-Jun-22 10:00N 42°23' W 071°03'1 1.6
2017-Jun-22 09:31N 42°22' W 071°03'4 8.3
2017-Jun-22 09:01N 42°20' W 070°58'611.5
2017-Jun-22 08:31N 42°23' W 070°51'5 9.2
2017-Jun-22 08:00N 42°24' W 070°45'5 9.5
2017-Jun-22 07:30N 42°22' W 070°39'5 9.8
2017-Jun-22 07:00N 42°22' W 070°33'510.6
2017-Jun-22 06:31N 42°21' W 070°26'511.0
2017-Jun-22 06:01N 42°21' W 070°18'510.7
2017-Jun-22 05:30N 42°20' W 070°11'510.2
2017-Jun-22 05:00N 42°20' W 070°04'5 9.4
2017-Jun-22 04:31N 42°17' W 069°58'510.4
2017-Jun-22 03:59N 42°12' W 069°55'169 7.2
2017-Jun-21 04:38N 40°22' W 072°46'3216.8
2017-Jun-21 02:44N 40°24' W 073°28'417.3
2017-Jun-21 02:30N 40°24' W 073°33'816.1
2017-Jun-21 02:00N 40°26' W 073°43'510.3
2017-Jun-21 01:31N 40°27' W 073°50'713.5
2017-Jun-21 01:00N 40°30' W 073°58'713.1
2017-Jun-21 00:30N 40°36' W 074°02'4 8.4
2017-Jun-21 00:01N 40°39' W 074°06'2 3.9
2017-Jun-20 23:31N 40°40' W 074°09'2 4.0
2017-Jun-20 23:01N 40°42' W 074°09'0 0.0
2017-Jun-20 22:30N 40°42' W 074°09'0 0.0
2017-Jun-20 22:00N 40°42' W 074°09'0 0.0
2017-Jun-20 21:30N 40°42' W 074°09'0 0.0
2017-Jun-20 21:00N 40°42' W 074°09'0 0.0
2017-Jun-20 20:30N 40°42' W 074°09'0 0.0
2017-Jun-20 20:00N 40°42' W 074°09'0 0.0
2017-Jun-20 19:30N 40°42' W 074°09'0 0.0
2017-Jun-20 19:00N 40°42' W 074°09'0 0.0
2017-Jun-20 18:30N 40°42' W 074°09'0 0.0
2017-Jun-20 18:00N 40°42' W 074°09'0 0.0
2017-Jun-20 17:30N 40°42' W 074°09'0 0.0
2017-Jun-20 17:00N 40°42' W 074°09'0 0.0
2017-Jun-20 16:30N 40°42' W 074°09'0 0.0
2017-Jun-20 16:00N 40°42' W 074°09'0 0.0
2017-Jun-20 15:30N 40°42' W 074°09'0 0.0
2017-Jun-20 15:00N 40°42' W 074°09'0 0.0
2017-Jun-20 14:00N 40°42' W 074°09'0 0.0
2017-Jun-20 13:30N 40°42' W 074°09'0 0.0
2017-Jun-20 13:00N 40°42' W 074°09'0 0.0
2017-Jun-20 12:30N 40°42' W 074°09'0 0.0
2017-Jun-20 12:00N 40°42' W 074°09'0 0.0
2017-Jun-20 11:30N 40°42' W 074°09'0 0.0
2017-Jun-20 11:00N 40°42' W 074°09'0 0.0
2017-Jun-20 10:30N 40°42' W 074°09'0 0.0
2017-Jun-20 10:00N 40°42' W 074°09'0 0.0
2017-Jun-20 09:30N 40°42' W 074°09'0 0.0
2017-Jun-20 09:00N 40°42' W 074°09'0 0.0
2017-Jun-20 08:30N 40°42' W 074°09'0 0.0
2017-Jun-20 08:00N 40°42' W 074°09'0 0.0
2017-Jun-20 07:30N 40°42' W 074°09'0 0.0
2017-Jun-20 07:00N 40°42' W 074°09'0 0.0
2017-Jun-20 06:30N 40°42' W 074°09'0 0.0
2017-Jun-20 06:00N 40°42' W 074°09'0 0.0
2017-Jun-20 05:30N 40°42' W 074°09'0 0.0
2017-Jun-20 05:00N 40°42' W 074°09'0 0.0
2017-Jun-20 04:30N 40°42' W 074°09'0 0.0
2017-Jun-20 04:00N 40°42' W 074°09'0 0.0
2017-Jun-20 03:30N 40°42' W 074°09'0 0.0
2017-Jun-20 03:00N 40°42' W 074°09'0 0.0
2017-Jun-20 02:30N 40°42' W 074°09'0 0.0
2017-Jun-20 02:00N 40°42' W 074°09'0 0.0
2017-Jun-20 01:30N 40°42' W 074°09'0 0.0
2017-Jun-20 01:00N 40°42' W 074°09'0 0.0
2017-Jun-20 00:30N 40°42' W 074°09'0 0.0
2017-Jun-20 00:00N 40°42' W 074°09'0 0.0
2017-Jun-19 23:30N 40°42' W 074°09'0 0.0
2017-Jun-19 23:00N 40°42' W 074°09'0 0.0
2017-Jun-19 22:30N 40°42' W 074°09'0 0.0
2017-Jun-19 22:00N 40°42' W 074°09'0 0.0
2017-Jun-19 21:27N 40°42' W 074°09'0 0.0
2017-Jun-19 21:00N 40°42' W 074°09'0 0.0
2017-Jun-19 20:30N 40°42' W 074°09'0 0.0
2017-Jun-19 20:00N 40°42' W 074°09'0 0.0
2017-Jun-19 19:27N 40°42' W 074°09'0 0.0
2017-Jun-19 19:00N 40°42' W 074°09'0 0.0
2017-Jun-19 18:30N 40°42' W 074°09'0 0.0
2017-Jun-19 18:00N 40°42' W 074°09'0 0.0
2017-Jun-19 17:30N 40°42' W 074°09'0 0.0
2017-Jun-19 17:00N 40°42' W 074°09'0 0.0
2017-Jun-19 16:30N 40°42' W 074°09'0 0.0
2017-Jun-19 16:00N 40°42' W 074°09'0 0.0
2017-Jun-19 15:30N 40°42' W 074°09'0 0.0
2017-Jun-19 15:00N 40°42' W 074°09'0 0.0
2017-Jun-19 14:00N 40°42' W 074°09'0 0.0
2017-Jun-19 13:30N 40°42' W 074°09'0 0.0
2017-Jun-19 13:00N 40°42' W 074°09'0 0.0
2017-Jun-19 12:30N 40°42' W 074°09'0 0.0
2017-Jun-19 12:00N 40°42' W 074°09'0 0.0
2017-Jun-19 11:30N 40°42' W 074°09'0 0.0
2017-Jun-19 11:00N 40°42' W 074°09'0 0.0
2017-Jun-19 10:30N 40°42' W 074°09'0 0.2
2017-Jun-19 10:01N 40°42' W 074°09'1 1.9
2017-Jun-19 09:31N 40°41' W 074°08'3 5.3
2017-Jun-19 09:01N 40°39' W 074°09'4 7.2
2017-Jun-19 08:31N 40°39' W 074°04'3 6.2
2017-Jun-19 08:01N 40°36' W 074°02'1212.3
2017-Jun-19 07:00N 40°28' W 073°50'4 7.5
2017-Jun-19 06:30N 40°25' W 073°48'713.0
2017-Jun-19 05:57N 40°17' W 073°46'45 2.6
2017-Jun-18 12:32N 39°36' W 073°20'2 1.6
2017-Jun-18 11:12N 39°36' W 073°23'0 1.7
2017-Jun-18 10:58N 39°36' W 073°24'1 1.6
2017-Jun-18 10:27N 39°36' W 073°25'15 3.4
2017-Jun-18 06:01N 39°35' W 073°44'310.8
2017-Jun-18 05:42N 39°35' W 073°48'1 3.1
2017-Jun-18 05:30N 39°35' W 073°49'1 1.3
2017-Jun-18 05:00N 39°35' W 073°49'1 1.4
2017-Jun-18 04:30N 39°34' W 073°48'1 1.5
2017-Jun-18 04:00N 39°34' W 073°48'1 1.8
2017-Jun-18 03:28N 39°33' W 073°47'1 1.6
2017-Jun-18 03:00N 39°32' W 073°46'1 1.6
2017-Jun-18 02:27N 39°32' W 073°45'1 1.6
2017-Jun-18 02:01N 39°32' W 073°44'1 1.6
2017-Jun-18 01:30N 39°31' W 073°43'1 1.6
2017-Jun-18 01:00N 39°31' W 073°42'2 1.1
2017-Jun-17 23:16N 39°30' W 073°40'0 0.8
2017-Jun-17 22:58N 39°30' W 073°40'1 0.8
2017-Jun-17 21:43N 39°31' W 073°39'0 0.8
2017-Jun-17 21:13N 39°31' W 073°38'0 0.9
2017-Jun-17 20:50N 39°31' W 073°38'2 0.8
2017-Jun-17 19:01N 39°32' W 073°36'1 0.8
2017-Jun-17 17:35N 39°33' W 073°35'0 0.5
2017-Jun-17 17:07N 39°33' W 073°35'0 0.4
2017-Jun-17 16:22N 39°33' W 073°34'0 0.6
2017-Jun-17 15:54N 39°33' W 073°34'0 0.7
2017-Jun-17 15:25N 39°34' W 073°34'0 0.8
2017-Jun-17 14:57N 39°34' W 073°34'1 0.8
2017-Jun-17 13:39N 39°34' W 073°32'0 0.5
2017-Jun-17 13:30N 39°34' W 073°32'0 0.7
2017-Jun-17 12:57N 39°34' W 073°32'3 5.4
2017-Jun-17 12:22N 39°31' W 073°34'914.0
2017-Jun-17 11:42N 39°23' W 073°40'316.1
2017-Jun-17 11:30N 39°20' W 073°41'815.7
2017-Jun-17 10:58N 39°13' W 073°47'816.2
2017-Jun-17 10:30N 39°07' W 073°53'916.0
2017-Jun-17 09:55N 38°60' W 074°01'1016.0
2017-Jun-17 09:18N 38°55' W 074°12'516.1
2017-Jun-17 09:00N 38°52' W 074°17'816.0
2017-Jun-17 08:30N 38°49' W 074°26'815.6
2017-Jun-17 08:00N 38°46' W 074°35'815.8
2017-Jun-17 07:30N 38°45' W 074°46'715.3
2017-Jun-17 07:00N 38°46' W 074°55'711.7
2017-Jun-17 06:24N 38°49' W 075°04'510.6
2017-Jun-17 05:55N 38°54' W 075°05'716.1
2017-Jun-17 05:28N 39°00' W 075°09'716.1
2017-Jun-17 05:01N 39°07' W 075°13'816.2
2017-Jun-17 04:31N 39°14' W 075°18'917.3
2017-Jun-17 04:00N 39°20' W 075°26'917.4
2017-Jun-17 03:30N 39°27' W 075°33'713.7
2017-Jun-17 03:00N 39°34' W 075°33'5 9.8
2017-Jun-17 02:30N 39°33' W 075°39'5 9.6
2017-Jun-17 02:00N 39°32' W 075°46'3 6.7
2017-Jun-17 01:30N 39°32' W 075°50'4 7.4
2017-Jun-17 01:00N 39°30' W 075°54'611.3
2017-Jun-17 00:30N 39°27' W 075°60'612.3
2017-Jun-17 00:00N 39°23' W 076°06'612.8
2017-Jun-16 23:31N 39°19' W 076°13'611.4
2017-Jun-16 23:00N 39°14' W 076°15'611.4
2017-Jun-16 22:31N 39°09' W 076°19'510.9
2017-Jun-16 22:01N 39°11' W 076°26'510.4
2017-Jun-16 21:30N 39°13' W 076°32'4 7.7
2017-Jun-16 21:00N 39°15' W 076°36'0 0.7
2017-Jun-16 20:29N 39°16' W 076°36'0 0.0
2017-Jun-16 19:59N 39°16' W 076°36'0 0.0
2017-Jun-16 19:29N 39°16' W 076°36'0 0.0
2017-Jun-16 18:59N 39°16' W 076°36'0 0.0
2017-Jun-16 18:29N 39°16' W 076°36'0 0.0
2017-Jun-16 17:59N 39°16' W 076°36'0 0.0
2017-Jun-16 17:29N 39°16' W 076°36'0 0.0
2017-Jun-16 16:59N 39°16' W 076°36'0 0.0
2017-Jun-16 16:29N 39°16' W 076°36'0 0.0
2017-Jun-16 15:59N 39°16' W 076°36'0 0.0
2017-Jun-16 15:29N 39°16' W 076°36'0 0.0
2017-Jun-16 14:59N 39°16' W 076°36'0 0.0
2017-Jun-16 14:29N 39°16' W 076°36'0 0.0
2017-Jun-16 13:29N 39°16' W 076°36'0 0.0
2017-Jun-16 12:59N 39°16' W 076°36'0 0.0
2017-Jun-16 12:29N 39°16' W 076°36'0 0.0
2017-Jun-16 11:59N 39°16' W 076°36'0 0.0
2017-Jun-16 11:26N 39°16' W 076°36'0 0.0
2017-Jun-16 10:59N 39°16' W 076°36'0 0.0
2017-Jun-16 10:29N 39°16' W 076°36'0 0.0
2017-Jun-16 09:59N 39°16' W 076°36'0 0.0
2017-Jun-16 09:29N 39°16' W 076°36'0 0.0
2017-Jun-16 08:59N 39°16' W 076°36'0 0.0
2017-Jun-16 08:29N 39°16' W 076°36'0 0.0
2017-Jun-16 07:59N 39°16' W 076°36'0 0.0
2017-Jun-16 07:26N 39°16' W 076°36'0 0.0
2017-Jun-16 06:59N 39°16' W 076°36'0 0.0
2017-Jun-16 06:29N 39°16' W 076°36'0 0.0
2017-Jun-16 05:59N 39°16' W 076°36'0 0.0
2017-Jun-16 05:29N 39°16' W 076°36'0 0.0
2017-Jun-16 04:59N 39°16' W 076°36'0 0.0
2017-Jun-16 04:29N 39°16' W 076°36'0 0.0
2017-Jun-16 03:59N 39°16' W 076°36'0 0.0
2017-Jun-16 03:29N 39°16' W 076°36'0 0.0
2017-Jun-16 02:59N 39°16' W 076°36'0 0.0
2017-Jun-16 02:29N 39°16' W 076°36'0 0.0
2017-Jun-16 01:59N 39°16' W 076°36'0 0.0
2017-Jun-16 01:29N 39°16' W 076°36'0 0.0
2017-Jun-16 00:59N 39°16' W 076°36'0 0.0
2017-Jun-16 00:29N 39°16' W 076°36'0 0.0
2017-Jun-15 23:59N 39°16' W 076°36'0 0.0
2017-Jun-15 23:29N 39°16' W 076°36'0 0.0
2017-Jun-15 22:59N 39°16' W 076°36'0 0.0
2017-Jun-15 22:29N 39°16' W 076°36'0 0.0
2017-Jun-15 21:59N 39°16' W 076°36'0 0.0
2017-Jun-15 21:29N 39°16' W 076°36'0 0.0
2017-Jun-15 20:59N 39°16' W 076°36'0 0.0
2017-Jun-15 20:29N 39°16' W 076°36'0 0.0
2017-Jun-15 19:59N 39°16' W 076°36'0 0.0
2017-Jun-15 19:29N 39°16' W 076°36'0 0.0
2017-Jun-15 18:59N 39°16' W 076°36'0 0.0
2017-Jun-15 18:29N 39°16' W 076°36'0 0.0
2017-Jun-15 17:59N 39°16' W 076°36'0 0.0
2017-Jun-15 17:29N 39°16' W 076°36'0 0.0
2017-Jun-15 16:59N 39°16' W 076°36'0 0.0
2017-Jun-15 16:29N 39°16' W 076°36'0 0.0
2017-Jun-15 15:59N 39°16' W 076°36'0 0.0
2017-Jun-15 15:29N 39°16' W 076°36'0 0.0
2017-Jun-15 14:59N 39°16' W 076°36'0 0.0
2017-Jun-15 14:29N 39°16' W 076°36'0 0.0
2017-Jun-15 12:53N 39°16' W 076°36'0 0.0
2017-Jun-15 11:35N 39°16' W 076°36'0 0.0
2017-Jun-15 11:29N 39°16' W 076°36'0 0.0
2017-Jun-15 10:59N 39°16' W 076°36'0 0.0
2017-Jun-15 10:29N 39°16' W 076°36'0 0.0
2017-Jun-15 09:06N 39°16' W 076°36'0 0.0
2017-Jun-15 08:45N 39°16' W 076°36'0 0.0
2017-Jun-15 08:30N 39°16' W 076°36'0 0.0
2017-Jun-15 08:00N 39°16' W 076°36'0 0.0
2017-Jun-15 07:30N 39°16' W 076°36'0 0.0
2017-Jun-15 06:57N 39°16' W 076°36'0 0.0
2017-Jun-15 06:12N 39°16' W 076°36'0 0.0
2017-Jun-15 04:42N 39°16' W 076°36'0 0.0
2017-Jun-15 04:30N 39°16' W 076°36'0 0.0
2017-Jun-15 03:50N 39°16' W 076°36'0 0.0
2017-Jun-14 14:05N 39°16' W 076°36'0 0.0
2017-Jun-14 13:29N 39°16' W 076°36'0 0.0
2017-Jun-14 12:59N 39°16' W 076°36'0 0.0
2017-Jun-14 12:29N 39°16' W 076°36'0 0.0
2017-Jun-14 11:59N 39°16' W 076°36'0 0.0
2017-Jun-14 11:29N 39°16' W 076°36'0 0.0
2017-Jun-14 10:59N 39°16' W 076°36'0 0.0
2017-Jun-14 10:29N 39°16' W 076°36'0 0.0
2017-Jun-14 09:59N 39°16' W 076°36'0 0.0
2017-Jun-14 09:29N 39°16' W 076°36'0 0.0
2017-Jun-14 08:59N 39°16' W 076°36'0 0.0
2017-Jun-14 08:20N 39°16' W 076°36'0 0.0
2017-Jun-14 07:59N 39°16' W 076°36'0 0.0
2017-Jun-14 07:29N 39°16' W 076°36'0 0.0
2017-Jun-14 06:59N 39°16' W 076°36'0 0.0
2017-Jun-14 06:26N 39°16' W 076°36'0 0.0
2017-Jun-14 05:59N 39°16' W 076°36'0 0.0
2017-Jun-14 05:29N 39°16' W 076°36'0 0.0
2017-Jun-14 04:59N 39°16' W 076°36'0 0.0
2017-Jun-14 04:29N 39°16' W 076°36'0 0.0
2017-Jun-14 03:59N 39°16' W 076°36'0 0.0
2017-Jun-14 03:29N 39°16' W 076°36'0 0.0
2017-Jun-14 02:59N 39°16' W 076°36'0 0.0
2017-Jun-14 02:29N 39°16' W 076°36'0 0.0
2017-Jun-14 01:59N 39°16' W 076°36'0 0.0
2017-Jun-14 01:29N 39°16' W 076°36'0 0.0
2017-Jun-14 00:59N 39°16' W 076°36'0 0.0
2017-Jun-14 00:29N 39°16' W 076°36'0 0.0
2017-Jun-13 23:59N 39°16' W 076°36'0 0.0
2017-Jun-13 23:29N 39°16' W 076°36'0 0.0
2017-Jun-13 22:59N 39°16' W 076°36'0 0.0
2017-Jun-13 22:29N 39°16' W 076°36'0 0.9
2017-Jun-13 22:01N 39°15' W 076°35'1 1.1
2017-Jun-13 21:28N 39°15' W 076°35'0 0.0
2017-Jun-13 20:58N 39°15' W 076°35'0 0.0
2017-Jun-13 20:28N 39°15' W 076°35'0 0.0
2017-Jun-13 19:58N 39°15' W 076°35'0 0.0
2017-Jun-13 19:28N 39°15' W 076°35'0 0.0
2017-Jun-13 18:58N 39°15' W 076°35'0 0.0
2017-Jun-13 18:28N 39°15' W 076°35'0 0.0
2017-Jun-13 17:58N 39°15' W 076°35'0 0.0
2017-Jun-13 17:28N 39°15' W 076°35'0 0.0
2017-Jun-13 16:58N 39°15' W 076°35'0 0.0
2017-Jun-13 16:28N 39°15' W 076°35'0 0.0
2017-Jun-13 15:58N 39°15' W 076°35'0 0.0
2017-Jun-13 15:28N 39°15' W 076°35'0 0.0
2017-Jun-13 14:58N 39°15' W 076°35'0 0.0
2017-Jun-13 13:58N 39°15' W 076°35'0 0.0
2017-Jun-13 13:28N 39°15' W 076°35'0 0.0
2017-Jun-13 12:58N 39°15' W 076°35'0 0.0
2017-Jun-13 12:28N 39°15' W 076°35'0 0.0
2017-Jun-13 11:58N 39°15' W 076°35'0 0.0
2017-Jun-13 11:28N 39°15' W 076°35'0 0.0
2017-Jun-13 10:58N 39°15' W 076°35'0 0.0
2017-Jun-13 10:28N 39°15' W 076°35'0 0.0
2017-Jun-13 10:01N 39°15' W 076°35'1 1.0
2017-Jun-13 09:30N 39°15' W 076°34'1 2.0
2017-Jun-13 08:59N 39°15' W 076°33'0 0.0
2017-Jun-13 08:29N 39°15' W 076°33'0 0.0
2017-Jun-13 07:59N 39°15' W 076°33'0 0.0
2017-Jun-13 07:23N 39°15' W 076°33'0 0.0
2017-Jun-13 06:59N 39°15' W 076°33'0 0.0
2017-Jun-13 06:29N 39°15' W 076°33'0 0.0
2017-Jun-13 05:59N 39°15' W 076°33'0 0.3
2017-Jun-13 05:30N 39°15' W 076°33'3 5.6
2017-Jun-13 05:00N 39°12' W 076°31'510.8
2017-Jun-13 04:30N 39°10' W 076°25'510.0
2017-Jun-13 04:00N 39°10' W 076°18'510.8
2017-Jun-13 03:30N 39°14' W 076°14'511.0
2017-Jun-13 03:01N 39°20' W 076°12'612.5
2017-Jun-13 02:31N 39°23' W 076°05'611.0
2017-Jun-13 02:00N 39°27' W 075°60'  

Dump ship's entire track history